createdAt,value
2018-07-08T00:01:05.800Z,6.43
2018-07-08T00:03:34.122Z,3.27
2018-07-08T00:06:13.945Z,5.47
2018-07-08T00:08:42.624Z,4.77
2018-07-08T00:11:14.450Z,6.73
2018-07-08T00:13:49.045Z,7.97
2018-07-08T00:16:17.350Z,5.40
2018-07-08T00:18:50.763Z,4.20
2018-07-08T00:21:25.436Z,5.40
2018-07-08T00:23:53.726Z,4.57
2018-07-08T00:26:24.994Z,8.10
2018-07-08T00:28:59.531Z,6.30
2018-07-08T00:31:31.847Z,8.07
2018-07-08T00:34:03.344Z,5.23
2018-07-08T00:36:37.899Z,6.67
2018-07-08T00:39:10.763Z,8.33
2018-07-08T00:41:38.975Z,7.30
2018-07-08T00:44:13.723Z,8.23
2018-07-08T00:46:42.101Z,7.00
2018-07-08T00:49:15.326Z,6.47
2018-07-08T00:51:47.827Z,7.53
2018-07-08T00:54:21.686Z,8.30
2018-07-08T00:56:50.038Z,6.73
2018-07-08T00:59:18.227Z,5.87
2018-07-08T01:01:46.779Z,6.57
2018-07-08T01:04:18.064Z,4.77
2018-07-08T01:06:49.575Z,6.17
2018-07-08T01:09:20.950Z,6.13
2018-07-08T01:12:01.759Z,5.00
2018-07-08T01:14:34.973Z,7.20
2018-07-08T01:17:08.093Z,8.77
2018-07-08T01:19:36.618Z,8.00
2018-07-08T01:22:06.819Z,7.93
2018-07-08T01:24:35.234Z,8.70
2018-07-08T01:27:03.453Z,6.03
2018-07-08T01:29:36.350Z,6.03
2018-07-08T01:32:04.827Z,7.97
2018-07-08T01:34:33.116Z,12.43
2018-07-08T01:37:06.308Z,7.93
2018-07-08T01:39:37.309Z,9.87
2018-07-08T01:42:08.105Z,6.60
2018-07-08T01:44:40.734Z,20.30
2018-07-08T01:47:20.925Z,6.77
2018-07-08T01:49:56.442Z,9.47
2018-07-08T01:52:27.540Z,9.30
2018-07-08T01:54:55.979Z,10.03
2018-07-08T01:57:27.174Z,6.50
2018-07-08T01:59:59.729Z,12.07
2018-07-08T02:02:28.343Z,7.77
2018-07-08T02:04:56.647Z,6.37
2018-07-08T02:07:28.733Z,10.93
2018-07-08T02:10:11.640Z,5.53
2018-07-08T02:12:40.049Z,6.27
2018-07-08T02:15:12.634Z,8.10
2018-07-08T02:17:40.962Z,6.57
2018-07-08T02:20:11.496Z,7.53
2018-07-08T02:22:39.870Z,7.97
2018-07-08T02:25:08.072Z,8.87
2018-07-08T02:27:42.451Z,8.53
2018-07-08T02:30:18.458Z,8.07
2018-07-08T02:32:46.679Z,9.97
2018-07-08T02:35:22.964Z,7.03
2018-07-08T02:37:56.541Z,6.70
2018-07-08T02:40:31.080Z,9.97
2018-07-08T02:43:04.387Z,6.87
2018-07-08T02:45:39.010Z,7.53
2018-07-08T02:48:10.426Z,8.27
2018-07-08T02:50:41.189Z,9.13
2018-07-08T02:53:09.588Z,10.03
2018-07-08T02:55:37.841Z,10.70
2018-07-08T02:58:08.069Z,11.90
2018-07-08T03:00:41.350Z,11.70
2018-07-08T03:03:16.379Z,13.07
2018-07-08T03:05:44.672Z,11.53
2018-07-08T03:08:19.486Z,7.17
2018-07-08T03:10:53.891Z,11.13
2018-07-08T03:13:22.199Z,10.80
2018-07-08T03:15:55.111Z,13.43
2018-07-08T03:18:25.400Z,9.47
2018-07-08T03:20:53.669Z,10.77
2018-07-08T03:23:24.823Z,15.90
2018-07-08T03:25:57.338Z,13.00
2018-07-08T03:28:37.278Z,8.93
2018-07-08T03:31:05.505Z,14.30
2018-07-08T03:33:37.310Z,12.20
2018-07-08T03:36:05.954Z,14.03
2018-07-08T03:38:37.215Z,11.07
2018-07-08T03:41:05.587Z,9.83
2018-07-08T03:43:33.942Z,11.47
2018-07-08T03:46:02.289Z,16.20
2018-07-08T03:48:39.921Z,10.20
2018-07-08T03:51:08.116Z,10.87
2018-07-08T03:53:41.672Z,12.83
2018-07-08T03:56:16.465Z,11.00
2018-07-08T03:58:44.719Z,14.70
2018-07-08T04:01:17.192Z,12.77
2018-07-08T04:03:48.207Z,12.57
2018-07-08T04:06:28.328Z,10.93
2018-07-08T04:08:56.553Z,9.73
2018-07-08T04:11:24.807Z,8.97
2018-07-08T04:13:57.822Z,13.23
2018-07-08T04:16:28.538Z,16.30
2018-07-08T04:19:13.676Z,11.80
2018-07-08T04:21:41.906Z,12.00
2018-07-08T04:24:10.543Z,8.90
2018-07-08T04:26:38.734Z,11.40
2018-07-08T04:29:13.158Z,9.73
2018-07-08T04:31:47.816Z,9.00
2018-07-08T04:34:16.072Z,13.27
2018-07-08T04:36:50.847Z,10.97
2018-07-08T04:39:19.067Z,9.10
2018-07-08T04:41:49.202Z,13.30
2018-07-08T04:44:27.488Z,15.53
2018-07-08T04:46:57.956Z,14.90
2018-07-08T04:49:32.740Z,10.83
2018-07-08T04:52:07.414Z,9.50
2018-07-08T04:54:35.873Z,11.10
2018-07-08T04:57:06.754Z,11.93
2018-07-08T04:59:35.048Z,14.03
2018-07-08T05:02:03.250Z,9.50
2018-07-08T05:04:34.418Z,11.37
2018-07-08T05:07:08.153Z,11.37
2018-07-08T05:09:50.194Z,12.00
2018-07-08T05:12:30.366Z,12.90
2018-07-08T05:14:58.836Z,9.83
2018-07-08T05:17:27.123Z,9.23
2018-07-08T05:19:55.398Z,9.07
2018-07-08T05:22:35.443Z,15.73
2018-07-08T05:25:06.813Z,10.87
2018-07-08T05:27:37.109Z,12.77
2018-07-08T05:30:07.885Z,9.07
2018-07-08T05:32:39.397Z,11.33
2018-07-08T05:35:10.773Z,12.13
2018-07-08T05:37:49.169Z,8.13
2018-07-08T05:40:19.615Z,12.50
2018-07-08T05:42:50.800Z,9.10
2018-07-08T05:45:19.029Z,11.37
2018-07-08T05:47:54.569Z,7.07
2018-07-08T05:50:25.693Z,7.80
2018-07-08T05:53:05.551Z,10.30
2018-07-08T05:55:33.910Z,9.07
2018-07-08T05:58:07.375Z,8.90
2018-07-08T06:00:40.565Z,14.70
2018-07-08T06:03:12.217Z,7.87
2018-07-08T06:05:49.461Z,10.03
2018-07-08T06:08:20.906Z,8.57
2018-07-08T06:13:29.097Z,12.50
2018-07-08T06:15:59.862Z,7.73
2018-07-08T06:18:28.320Z,8.17
2018-07-08T06:21:02.678Z,9.73
2018-07-08T06:23:30.962Z,8.70
2018-07-08T06:26:03.453Z,9.60
2018-07-08T06:28:35.953Z,7.27
2018-07-08T06:31:04.285Z,7.53
2018-07-08T06:33:37.289Z,8.60
2018-07-08T06:36:07.506Z,10.17
2018-07-08T06:38:35.844Z,6.90
2018-07-08T06:41:06.734Z,9.63
2018-07-08T06:43:36.955Z,13.67
2018-07-08T06:46:05.275Z,7.17
2018-07-08T06:48:38.704Z,5.70
2018-07-08T06:51:11.201Z,3.53
2018-07-08T06:53:42.307Z,9.60
2018-07-08T06:56:14.699Z,7.97
2018-07-08T06:58:46.277Z,4.87
2018-07-08T07:01:18.618Z,4.23
2018-07-08T07:03:52.634Z,9.87
2018-07-08T07:06:20.859Z,5.83
2018-07-08T07:08:56.302Z,4.20
2018-07-08T07:11:31.166Z,3.77
2018-07-08T07:13:59.426Z,6.37
2018-07-08T07:16:32.077Z,8.80
2018-07-08T07:19:00.277Z,7.10
2018-07-08T07:21:39.980Z,10.13
2018-07-08T07:24:08.224Z,7.93
2018-07-08T07:26:48.131Z,8.07
2018-07-08T07:29:18.608Z,4.23
2018-07-08T07:32:05.994Z,7.10
2018-07-08T07:34:37.978Z,6.63
2018-07-08T07:37:06.473Z,5.77
2018-07-08T07:39:34.746Z,6.07
2018-07-08T07:42:07.869Z,7.90
2018-07-08T07:44:47.947Z,5.47
2018-07-08T07:47:16.259Z,5.63
2018-07-08T07:49:44.531Z,6.33
2018-07-08T07:52:19.289Z,5.80
2018-07-08T07:54:47.558Z,7.70
2018-07-08T07:57:29.613Z,6.77
2018-07-08T08:00:01.879Z,4.77
2018-07-08T08:02:32.322Z,5.00
2018-07-08T08:05:00.779Z,5.80
2018-07-08T08:07:29.044Z,5.80
2018-07-08T08:09:57.255Z,8.93
2018-07-08T08:12:31.888Z,5.27
2018-07-08T08:15:06.915Z,5.27
2018-07-08T08:17:46.980Z,4.00
2018-07-08T08:20:15.359Z,3.93
2018-07-08T08:22:43.645Z,5.30
2018-07-08T08:25:18.241Z,5.77
2018-07-08T08:27:46.533Z,6.33
2018-07-08T08:30:17.765Z,3.27
2018-07-08T08:32:48.223Z,4.80
2018-07-08T08:35:20.387Z,4.10
2018-07-08T08:37:52.142Z,5.80
2018-07-08T08:40:29.122Z,5.73
2018-07-08T08:42:57.447Z,3.00
2018-07-08T08:45:29.045Z,6.57
2018-07-08T08:47:57.302Z,4.97
2018-07-08T08:50:31.937Z,6.20
2018-07-08T08:53:00.651Z,4.77
2018-07-08T08:55:28.898Z,3.20
2018-07-08T08:58:01.739Z,2.57
2018-07-08T09:00:30.153Z,2.97
2018-07-08T09:02:58.636Z,4.03
2018-07-08T09:05:27.029Z,4.97
2018-07-08T09:07:55.261Z,5.77
2018-07-08T09:10:26.442Z,3.03
2018-07-08T09:13:01.978Z,5.23
2018-07-08T09:15:36.501Z,3.47
2018-07-08T09:18:09.704Z,4.37
2018-07-08T09:20:41.376Z,3.50
2018-07-08T09:23:09.694Z,3.37
2018-07-08T09:25:40.882Z,4.40
2018-07-08T09:28:09.216Z,5.23
2018-07-08T09:30:37.751Z,4.53
2018-07-08T09:33:05.992Z,4.50
2018-07-08T09:35:45.761Z,4.93
2018-07-08T09:38:14.103Z,3.30
2018-07-08T09:40:42.315Z,2.93
2018-07-08T09:43:16.936Z,2.13
2018-07-08T09:45:48.361Z,3.30
2018-07-08T09:48:20.944Z,5.20
2018-07-08T09:50:49.213Z,3.63
2018-07-08T09:53:24.685Z,2.13
2018-07-08T09:55:57.673Z,3.23
2018-07-08T09:58:28.126Z,5.63
2018-07-08T10:01:03.399Z,3.67
2018-07-08T10:03:33.274Z,6.83
2018-07-08T10:06:05.351Z,2.53
2018-07-08T10:08:36.382Z,5.27
2018-07-08T10:11:07.482Z,3.97
2018-07-08T10:13:38.696Z,3.97
2018-07-08T10:16:07.030Z,3.57
2018-07-08T10:18:35.290Z,3.20
2018-07-08T10:21:12.175Z,2.73
2018-07-08T10:23:40.463Z,3.33
2018-07-08T10:26:10.935Z,3.53
2018-07-08T10:28:39.278Z,3.03
2018-07-08T10:31:11.150Z,4.57
2018-07-08T10:33:56.061Z,2.50
2018-07-08T10:36:31.631Z,4.87
2018-07-08T10:39:04.127Z,3.20
2018-07-08T10:41:32.353Z,4.10
2018-07-08T10:44:03.439Z,2.30
2018-07-08T10:46:31.914Z,5.57
2018-07-08T10:48:59.965Z,1.87
2018-07-08T10:51:34.720Z,2.53
2018-07-08T10:54:03.150Z,3.30
2018-07-08T10:56:31.429Z,2.40
2018-07-08T10:59:02.605Z,5.00
2018-07-08T11:01:37.222Z,2.37
2018-07-08T11:04:09.924Z,2.93
2018-07-08T11:06:42.389Z,3.43
2018-07-08T11:09:10.865Z,4.37
2018-07-08T11:11:46.356Z,3.53
2018-07-08T11:14:14.682Z,3.23
2018-07-08T11:16:56.760Z,3.47
2018-07-08T11:19:30.304Z,2.57
2018-07-08T11:22:02.802Z,1.83
2018-07-08T11:24:37.341Z,4.17
2018-07-08T11:27:08.516Z,2.20
2018-07-08T11:29:36.755Z,2.27
2018-07-08T11:32:05.312Z,4.33
2018-07-08T11:34:33.632Z,3.37
2018-07-08T11:37:01.806Z,3.03
2018-07-08T11:39:33.158Z,4.47
2018-07-08T11:42:03.490Z,5.17
2018-07-08T11:44:35.140Z,4.90
2018-07-08T11:47:10.022Z,3.30
2018-07-08T11:49:38.253Z,3.47
2018-07-08T11:52:11.426Z,3.00
2018-07-08T11:54:45.788Z,2.43
2018-07-08T11:57:26.552Z,2.07
2018-07-08T12:00:03.198Z,4.07
2018-07-08T12:02:31.462Z,1.63
2018-07-08T12:05:00.308Z,0.93
2018-07-08T12:07:28.506Z,2.70
2018-07-08T12:09:56.931Z,2.30
2018-07-08T12:12:38.971Z,3.70
2018-07-08T12:15:19.180Z,1.80
2018-07-08T12:17:50.274Z,1.97
2018-07-08T12:20:22.364Z,2.50
2018-07-08T12:23:02.551Z,8.37
2018-07-08T12:25:31.032Z,1.50
2018-07-08T12:28:09.358Z,2.13
2018-07-08T12:30:37.715Z,1.70
2018-07-08T12:33:08.260Z,1.17
2018-07-08T12:35:36.480Z,2.80
2018-07-08T12:38:10.219Z,2.10
2018-07-08T12:40:38.478Z,3.00
2018-07-08T12:43:10.894Z,3.13
2018-07-08T12:45:43.291Z,2.70
2018-07-08T12:48:18.401Z,5.10
2018-07-08T12:50:48.767Z,4.60
2018-07-08T12:53:19.233Z,5.73
2018-07-08T12:55:49.793Z,3.93
2018-07-08T12:58:27.991Z,1.80
2018-07-08T13:00:56.349Z,1.60
2018-07-08T13:03:24.677Z,1.67
2018-07-08T13:05:57.273Z,4.13
2018-07-08T13:08:25.642Z,1.67
2018-07-08T13:10:59.084Z,3.67
2018-07-08T13:13:33.671Z,3.80
2018-07-08T13:16:01.958Z,4.23
2018-07-08T13:18:37.406Z,1.23
2018-07-08T13:21:08.671Z,1.93
2018-07-08T13:23:43.379Z,4.33
2018-07-08T13:26:21.309Z,1.73
2018-07-08T13:28:54.863Z,5.50
2018-07-08T13:31:27.522Z,3.03
2018-07-08T13:34:02.045Z,2.30
2018-07-08T13:36:41.725Z,3.43
2018-07-08T13:39:10.992Z,3.30
2018-07-08T13:41:50.881Z,2.83
2018-07-08T13:44:23.518Z,2.00
2018-07-08T13:46:54.502Z,1.63
2018-07-08T13:49:23.131Z,3.10
2018-07-08T13:51:51.440Z,1.20
2018-07-08T13:54:19.607Z,2.70
2018-07-08T13:56:54.368Z,1.80
2018-07-08T13:59:22.628Z,3.63
2018-07-08T14:01:56.032Z,1.40
2018-07-08T14:04:32.757Z,2.73
2018-07-08T14:07:01.022Z,2.57
2018-07-08T14:09:46.044Z,3.87
2018-07-08T14:12:18.338Z,2.70
2018-07-08T14:14:46.762Z,1.70
2018-07-08T14:17:15.038Z,2.07
2018-07-08T14:19:43.261Z,1.97
2018-07-08T14:22:18.562Z,3.10
2018-07-08T14:24:51.617Z,2.57
2018-07-08T14:27:19.846Z,2.60
2018-07-08T14:29:48.445Z,2.43
2018-07-08T14:32:16.707Z,1.73
2018-07-08T14:34:52.421Z,2.53
2018-07-08T14:37:20.715Z,3.30
2018-07-08T14:39:54.066Z,1.37
2018-07-08T14:42:31.066Z,5.23
2018-07-08T14:45:02.656Z,3.77
2018-07-08T14:47:35.995Z,1.57
2018-07-08T14:50:06.894Z,3.10
2018-07-08T14:52:41.450Z,2.47
2018-07-08T14:55:12.589Z,2.00
2018-07-08T14:57:44.919Z,2.20
2018-07-08T15:00:25.829Z,4.13
2018-07-08T15:02:54.173Z,3.43
2018-07-08T15:05:28.831Z,1.63
2018-07-08T15:07:57.113Z,2.47
2018-07-08T15:10:29.500Z,6.87
2018-07-08T15:13:02.241Z,3.80
2018-07-08T15:15:30.542Z,2.53
2018-07-08T15:18:05.868Z,4.30
2018-07-08T15:20:40.566Z,2.60
2018-07-08T15:23:08.744Z,2.47
2018-07-08T15:25:43.330Z,3.60
2018-07-08T15:28:16.242Z,3.13
2018-07-08T15:30:44.565Z,2.77
2018-07-08T15:33:13.125Z,2.60
2018-07-08T15:35:49.949Z,1.57
2018-07-08T15:41:05.547Z,2.40
2018-07-08T15:43:35.912Z,1.60
2018-07-08T15:46:04.300Z,2.40
2018-07-08T15:48:32.551Z,2.13
2018-07-08T15:51:07.169Z,3.07
2018-07-08T15:53:35.387Z,2.50
2018-07-08T15:56:10.238Z,2.10
2018-07-08T15:58:38.546Z,2.97
2018-07-08T16:01:07.199Z,1.67
2018-07-08T16:03:35.529Z,6.10
2018-07-08T16:06:03.978Z,2.53
2018-07-08T16:08:35.272Z,1.50
2018-07-08T16:11:06.316Z,1.73
2018-07-08T16:13:36.857Z,2.83
2018-07-08T16:16:08.054Z,2.03
2018-07-08T16:18:36.320Z,2.20
2018-07-08T16:21:11.028Z,1.63
2018-07-08T16:23:39.235Z,3.70
2018-07-08T16:26:16.872Z,4.07
2018-07-08T16:28:45.149Z,4.60
2018-07-08T16:31:18.462Z,3.57
2018-07-08T16:33:56.953Z,2.53
2018-07-08T16:36:30.058Z,1.90
2018-07-08T16:39:06.592Z,4.27
2018-07-08T16:41:34.555Z,3.97
2018-07-08T16:44:02.835Z,4.10
2018-07-08T16:46:36.361Z,1.53
2018-07-08T16:49:07.505Z,1.40
2018-07-08T16:51:39.902Z,1.40
2018-07-08T16:54:11.120Z,2.47
2018-07-08T16:56:42.236Z,2.43
2018-07-08T16:59:14.698Z,2.23
2018-07-08T17:01:49.261Z,3.20
2018-07-08T17:04:17.502Z,3.03
2018-07-08T17:06:48.170Z,4.60
2018-07-08T17:09:20.954Z,4.30
2018-07-08T17:11:49.404Z,2.30
2018-07-08T17:14:21.709Z,1.93
2018-07-08T17:16:50.506Z,2.13
2018-07-08T17:19:18.841Z,1.90
2018-07-08T17:21:47.099Z,1.50
2018-07-08T17:24:18.190Z,1.97
2018-07-08T17:26:55.974Z,3.20
2018-07-08T17:29:27.291Z,1.40
2018-07-08T17:31:58.828Z,2.33
2018-07-08T17:34:31.350Z,1.80
2018-07-08T17:37:09.192Z,1.83
2018-07-08T17:39:37.714Z,1.50
2018-07-08T17:42:06.100Z,2.37
2018-07-08T17:44:37.850Z,7.43
2018-07-08T17:47:14.012Z,2.20
2018-07-08T17:49:42.431Z,1.57
2018-07-08T17:52:10.682Z,3.53
2018-07-08T17:54:43.169Z,2.83
2018-07-08T17:57:15.769Z,1.70
2018-07-08T17:59:46.153Z,2.00
2018-07-08T18:02:14.530Z,1.57
2018-07-08T18:04:48.060Z,3.27
2018-07-08T18:07:16.280Z,1.23
2018-07-08T18:09:48.388Z,2.60
2018-07-08T18:12:18.984Z,1.20
2018-07-08T18:14:54.868Z,1.97
2018-07-08T18:17:23.695Z,2.10
2018-07-08T18:19:51.916Z,4.77
2018-07-08T18:22:23.122Z,3.63
2018-07-08T18:24:56.456Z,1.97
2018-07-08T18:27:24.842Z,1.00
2018-07-08T18:30:02.579Z,2.17
2018-07-08T18:32:40.785Z,2.60
2018-07-08T18:35:11.183Z,2.07
2018-07-08T18:37:44.382Z,2.07
2018-07-08T18:40:13.067Z,1.87
2018-07-08T18:42:52.651Z,1.40
2018-07-08T18:45:26.009Z,1.17
2018-07-08T18:47:57.355Z,5.67
2018-07-08T18:50:27.963Z,1.40
2018-07-08T18:52:59.406Z,1.70
2018-07-08T18:55:33.762Z,1.87
2018-07-08T18:58:04.937Z,1.97
2018-07-08T19:00:33.152Z,1.83
2018-07-08T19:03:06.471Z,1.63
2018-07-08T19:05:34.739Z,3.53
2018-07-08T19:08:05.940Z,3.40
2018-07-08T19:10:34.429Z,1.37
2018-07-08T19:13:02.755Z,3.63
2018-07-08T19:15:30.999Z,0.87
2018-07-08T19:18:05.741Z,2.37
2018-07-08T19:20:33.987Z,1.20
2018-07-08T19:23:02.456Z,1.27
2018-07-08T19:25:43.406Z,2.20
2018-07-08T19:28:11.910Z,1.10
2018-07-08T19:30:40.433Z,2.80
2018-07-08T19:33:11.052Z,1.60
2018-07-08T19:35:39.559Z,1.30
2018-07-08T19:38:12.777Z,2.70
2018-07-08T19:40:41.414Z,2.13
2018-07-08T19:43:17.256Z,1.10
2018-07-08T19:45:55.375Z,3.20
2018-07-08T19:48:32.303Z,1.40
2018-07-08T19:51:00.741Z,2.33
2018-07-08T19:53:28.951Z,1.50
2018-07-08T19:56:02.698Z,1.10
2018-07-08T19:58:30.969Z,3.20
2018-07-08T20:01:11.270Z,1.57
2018-07-08T20:03:45.855Z,2.73
2018-07-08T20:06:20.606Z,1.50
2018-07-08T20:08:49.053Z,1.73
2018-07-08T20:11:17.348Z,1.27
2018-07-08T20:13:53.706Z,3.63
2018-07-08T20:16:29.454Z,1.77
2018-07-08T20:18:57.631Z,5.90
2018-07-08T20:21:30.913Z,2.57
2018-07-08T20:24:03.260Z,3.23
2018-07-08T20:26:37.455Z,3.43
2018-07-08T20:29:06.007Z,2.67
2018-07-08T20:31:36.515Z,1.67
2018-07-08T20:34:05.356Z,3.60
2018-07-08T20:36:42.977Z,3.67
2018-07-08T20:39:11.409Z,2.90
2018-07-08T20:41:44.482Z,2.70
2018-07-08T20:44:16.341Z,1.60
2018-07-08T20:46:53.042Z,3.53
2018-07-08T20:49:21.321Z,4.03
2018-07-08T20:51:52.451Z,3.30
2018-07-08T20:54:25.156Z,2.37
2018-07-08T20:57:00.641Z,1.63
2018-07-08T20:59:35.103Z,3.30
2018-07-08T21:04:44.253Z,1.80
2018-07-08T21:07:12.488Z,3.23
2018-07-08T21:09:45.151Z,2.00
2018-07-08T21:12:13.518Z,3.00
2018-07-08T21:14:51.351Z,2.77
2018-07-08T21:17:29.606Z,4.90
2018-07-08T21:20:00.207Z,2.73
2018-07-08T21:22:31.410Z,3.50
2018-07-08T21:24:59.679Z,3.47
2018-07-08T21:27:32.345Z,2.57
2018-07-08T21:30:00.669Z,2.67
2018-07-08T21:32:29.237Z,3.60
2018-07-08T21:34:57.945Z,3.60
2018-07-08T21:37:26.403Z,3.17
2018-07-08T21:39:54.917Z,4.13
2018-07-08T21:42:23.280Z,4.03
2018-07-08T21:44:51.628Z,3.23
2018-07-08T21:47:20.547Z,2.97
2018-07-08T21:49:48.900Z,4.10
2018-07-08T21:52:17.138Z,4.10
2018-07-08T21:54:51.635Z,4.50
2018-07-08T21:57:20.064Z,4.23
2018-07-08T21:59:54.293Z,5.47
2018-07-08T22:02:25.266Z,3.33
2018-07-08T22:04:53.501Z,3.37
2018-07-08T22:07:33.594Z,3.47
2018-07-08T22:10:03.897Z,3.73
2018-07-08T22:12:38.125Z,6.77
2018-07-08T22:15:06.384Z,6.77
2018-07-08T22:17:45.185Z,5.83
2018-07-08T22:20:13.495Z,5.30
2018-07-08T22:22:41.854Z,3.40
2018-07-08T22:25:10.189Z,10.60
2018-07-08T22:27:42.689Z,8.77
2018-07-08T22:30:16.428Z,4.27
2018-07-08T22:32:44.891Z,4.07
2018-07-08T22:35:13.290Z,9.07
2018-07-08T22:37:41.563Z,5.80
2018-07-08T22:40:15.003Z,5.53
2018-07-08T22:42:52.655Z,5.23
2018-07-08T22:45:20.948Z,4.77
2018-07-08T22:47:58.650Z,4.70
2018-07-08T22:50:26.893Z,5.13
2018-07-08T22:53:04.678Z,5.27
2018-07-08T22:55:35.121Z,4.40
2018-07-08T22:58:06.298Z,5.13
2018-07-08T23:00:50.188Z,6.33
2018-07-08T23:03:59.167Z,4.53
2018-07-08T23:06:30.360Z,6.20
2018-07-08T23:08:58.470Z,7.63
2018-07-08T23:11:29.640Z,5.33
2018-07-08T23:14:00.680Z,8.10
2018-07-08T23:16:40.589Z,6.30
2018-07-08T23:19:08.993Z,8.20
2018-07-08T23:21:40.203Z,8.47
2018-07-08T23:24:08.510Z,5.97
2018-07-08T23:26:41.996Z,7.23
2018-07-08T23:29:10.285Z,5.07
2018-07-08T23:31:41.976Z,5.27
2018-07-08T23:34:10.265Z,7.37
2018-07-08T23:36:41.352Z,7.60
2018-07-08T23:39:12.697Z,7.47
2018-07-08T23:41:41.353Z,5.63
2018-07-08T23:44:12.152Z,5.53
2018-07-08T23:46:49.010Z,6.33
2018-07-08T23:49:17.742Z,6.03
2018-07-08T23:51:47.917Z,6.23
2018-07-08T23:54:16.265Z,6.27
2018-07-08T23:56:48.798Z,7.70
2018-07-08T23:59:17.018Z,6.00
